sensor_id;sensor_type;location;lat;lon;timestamp;P1;durP1;ratioP1;P2;durP2;ratioP2
2866;SDS011;1441;48.886;8.728;2023-10-09T00:00:12;15.47;;;5.07;;
2866;SDS011;1441;48.886;8.728;2023-10-09T00:02:57;7.50;;;4.00;;
2866;SDS011;1441;48.886;8.728;2023-10-09T00:05:44;14.77;;;4.57;;
2866;SDS011;1441;48.886;8.728;2023-10-09T00:08:10;12.57;;;4.47;;
2866;SDS011;1441;48.886;8.728;2023-10-09T00:10:44;15.77;;;4.47;;
2866;SDS011;1441;48.886;8.728;2023-10-09T00:13:25;14.13;;;3.60;;
2866;SDS011;1441;48.886;8.728;2023-10-09T00:15:58;21.13;;;4.63;;
2866;SDS011;1441;48.886;8.728;2023-10-09T00:18:39;18.60;;;4.70;;
2866;SDS011;1441;48.886;8.728;2023-10-09T00:21:14;17.70;;;5.30;;
2866;SDS011;1441;48.886;8.728;2023-10-09T00:23:41;12.43;;;4.67;;
2866;SDS011;1441;48.886;8.728;2023-10-09T00:26:07;12.53;;;4.43;;
2866;SDS011;1441;48.886;8.728;2023-10-09T00:28:37;11.03;;;3.50;;
2866;SDS011;1441;48.886;8.728;2023-10-09T00:31:08;19.80;;;3.73;;
2866;SDS011;1441;48.886;8.728;2023-10-09T00:33:39;13.37;;;4.60;;
2866;SDS011;1441;48.886;8.728;2023-10-09T00:36:08;24.57;;;5.23;;
2866;SDS011;1441;48.886;8.728;2023-10-09T00:38:34;14.10;;;4.83;;
2866;SDS011;1441;48.886;8.728;2023-10-09T00:41:01;20.93;;;4.93;;
2866;SDS011;1441;48.886;8.728;2023-10-09T00:43:32;18.77;;;4.30;;
2866;SDS011;1441;48.886;8.728;2023-10-09T00:46:00;12.30;;;3.63;;
2866;SDS011;1441;48.886;8.728;2023-10-09T00:48:37;18.13;;;4.83;;
2866;SDS011;1441;48.886;8.728;2023-10-09T00:51:06;12.13;;;4.10;;
2866;SDS011;1441;48.886;8.728;2023-10-09T00:53:52;15.60;;;4.13;;
2866;SDS011;1441;48.886;8.728;2023-10-09T00:56:44;17.77;;;4.30;;
2866;SDS011;1441;48.886;8.728;2023-10-09T00:59:16;13.07;;;4.00;;
2866;SDS011;1441;48.886;8.728;2023-10-09T01:01:45;12.90;;;4.37;;
2866;SDS011;1441;48.886;8.728;2023-10-09T01:04:25;19.93;;;3.67;;
2866;SDS011;1441;48.886;8.728;2023-10-09T01:06:54;16.00;;;5.40;;
2866;SDS011;1441;48.886;8.728;2023-10-09T01:09:41;21.80;;;4.07;;
2866;SDS011;1441;48.886;8.728;2023-10-09T01:12:09;16.90;;;3.87;;
2866;SDS011;1441;48.886;8.728;2023-10-09T01:14:44;14.77;;;4.03;;
2866;SDS011;1441;48.886;8.728;2023-10-09T01:17:10;15.30;;;4.03;;
2866;SDS011;1441;48.886;8.728;2023-10-09T01:19:36;16.60;;;5.17;;
2866;SDS011;1441;48.886;8.728;2023-10-09T01:22:02;11.80;;;4.30;;
2866;SDS011;1441;48.886;8.728;2023-10-09T01:24:41;11.57;;;3.83;;
2866;SDS011;1441;48.886;8.728;2023-10-09T01:27:08;14.97;;;3.90;;
2866;SDS011;1441;48.886;8.728;2023-10-09T01:29:40;22.03;;;4.77;;
2866;SDS011;1441;48.886;8.728;2023-10-09T01:32:11;14.60;;;4.27;;
2866;SDS011;1441;48.886;8.728;2023-10-09T01:34:44;12.50;;;4.20;;
2866;SDS011;1441;48.886;8.728;2023-10-09T01:37:14;19.23;;;4.07;;
2866;SDS011;1441;48.886;8.728;2023-10-09T01:39:46;14.40;;;3.83;;
2866;SDS011;1441;48.886;8.728;2023-10-09T01:42:13;14.17;;;4.13;;
2866;SDS011;1441;48.886;8.728;2023-10-09T01:45:08;24.40;;;4.33;;
2866;SDS011;1441;48.886;8.728;2023-10-09T01:47:40;11.20;;;3.73;;
2866;SDS011;1441;48.886;8.728;2023-10-09T01:50:11;18.00;;;4.30;;
2866;SDS011;1441;48.886;8.728;2023-10-09T01:52:45;12.33;;;4.37;;
2866;SDS011;1441;48.886;8.728;2023-10-09T01:55:11;17.43;;;3.90;;
2866;SDS011;1441;48.886;8.728;2023-10-09T01:58:00;23.33;;;5.00;;
2866;SDS011;1441;48.886;8.728;2023-10-09T02:00:31;12.83;;;4.03;;
2866;SDS011;1441;48.886;8.728;2023-10-09T02:03:08;11.07;;;3.87;;
2866;SDS011;1441;48.886;8.728;2023-10-09T02:05:37;11.33;;;3.97;;
2866;SDS011;1441;48.886;8.728;2023-10-09T02:08:03;43.07;;;4.70;;
2866;SDS011;1441;48.886;8.728;2023-10-09T02:10:29;13.60;;;4.30;;
2866;SDS011;1441;48.886;8.728;2023-10-09T02:12:58;14.97;;;3.57;;
2866;SDS011;1441;48.886;8.728;2023-10-09T02:15:25;15.90;;;4.60;;
2866;SDS011;1441;48.886;8.728;2023-10-09T02:23:31;20.50;;;3.87;;
2866;SDS011;1441;48.886;8.728;2023-10-09T02:26:16;17.23;;;4.50;;
2866;SDS011;1441;48.886;8.728;2023-10-09T02:29:12;8.07;;;3.57;;
2866;SDS011;1441;48.886;8.728;2023-10-09T02:31:37;22.80;;;4.17;;
2866;SDS011;1441;48.886;8.728;2023-10-09T02:34:06;14.90;;;4.23;;
2866;SDS011;1441;48.886;8.728;2023-10-09T02:36:33;14.73;;;4.27;;
2866;SDS011;1441;48.886;8.728;2023-10-09T02:39:03;14.07;;;3.47;;
2866;SDS011;1441;48.886;8.728;2023-10-09T02:41:32;13.67;;;4.00;;
2866;SDS011;1441;48.886;8.728;2023-10-09T02:43:59;14.83;;;4.20;;
2866;SDS011;1441;48.886;8.728;2023-10-09T02:46:35;13.60;;;5.03;;
2866;SDS011;1441;48.886;8.728;2023-10-09T02:49:01;23.30;;;5.07;;
2866;SDS011;1441;48.886;8.728;2023-10-09T02:51:31;13.93;;;3.80;;
2866;SDS011;1441;48.886;8.728;2023-10-09T02:54:06;10.33;;;3.87;;
2866;SDS011;1441;48.886;8.728;2023-10-09T02:56:42;16.40;;;4.67;;
2866;SDS011;1441;48.886;8.728;2023-10-09T02:59:09;17.60;;;3.70;;
2866;SDS011;1441;48.886;8.728;2023-10-09T03:01:35;25.10;;;4.53;;
2866;SDS011;1441;48.886;8.728;2023-10-09T03:04:02;13.90;;;4.20;;
2866;SDS011;1441;48.886;8.728;2023-10-09T03:06:30;17.13;;;3.90;;
2866;SDS011;1441;48.886;8.728;2023-10-09T03:08:58;15.07;;;4.00;;
2866;SDS011;1441;48.886;8.728;2023-10-09T03:11:23;21.97;;;4.90;;
2866;SDS011;1441;48.886;8.728;2023-10-09T03:13:51;17.10;;;3.80;;
2866;SDS011;1441;48.886;8.728;2023-10-09T03:16:18;17.43;;;4.70;;
2866;SDS011;1441;48.886;8.728;2023-10-09T03:18:45;17.57;;;4.17;;
2866;SDS011;1441;48.886;8.728;2023-10-09T03:21:12;14.63;;;3.60;;
2866;SDS011;1441;48.886;8.728;2023-10-09T03:23:39;18.13;;;4.83;;
2866;SDS011;1441;48.886;8.728;2023-10-09T03:26:05;15.60;;;4.17;;
2866;SDS011;1441;48.886;8.728;2023-10-09T03:28:33;21.83;;;5.17;;
2866;SDS011;1441;48.886;8.728;2023-10-09T03:30:58;18.43;;;5.00;;
2866;SDS011;1441;48.886;8.728;2023-10-09T03:33:27;14.10;;;3.80;;
2866;SDS011;1441;48.886;8.728;2023-10-09T03:35:57;22.03;;;5.43;;
2866;SDS011;1441;48.886;8.728;2023-10-09T03:38:26;16.13;;;5.23;;
2866;SDS011;1441;48.886;8.728;2023-10-09T03:41:01;14.97;;;4.27;;
2866;SDS011;1441;48.886;8.728;2023-10-09T03:43:31;20.40;;;4.67;;
2866;SDS011;1441;48.886;8.728;2023-10-09T03:46:06;20.30;;;5.23;;
2866;SDS011;1441;48.886;8.728;2023-10-09T03:48:51;21.93;;;5.20;;
2866;SDS011;1441;48.886;8.728;2023-10-09T03:51:17;18.53;;;5.73;;
2866;SDS011;1441;48.886;8.728;2023-10-09T03:53:50;12.27;;;4.10;;
2866;SDS011;1441;48.886;8.728;2023-10-09T03:56:19;17.67;;;4.50;;
2866;SDS011;1441;48.886;8.728;2023-10-09T03:58:46;25.47;;;5.40;;
2866;SDS011;1441;48.886;8.728;2023-10-09T04:01:17;27.33;;;4.73;;
2866;SDS011;1441;48.886;8.728;2023-10-09T04:03:47;16.53;;;4.27;;
2866;SDS011;1441;48.886;8.728;2023-10-09T04:06:14;16.80;;;4.73;;
2866;SDS011;1441;48.886;8.728;2023-10-09T04:08:42;16.43;;;4.17;;
2866;SDS011;1441;48.886;8.728;2023-10-09T04:11:14;13.03;;;3.97;;
2866;SDS011;1441;48.886;8.728;2023-10-09T04:13:47;33.27;;;4.80;;
2866;SDS011;1441;48.886;8.728;2023-10-09T04:16:14;20.83;;;4.00;;
2866;SDS011;1441;48.886;8.728;2023-10-09T04:18:58;16.03;;;4.70;;
2866;SDS011;1441;48.886;8.728;2023-10-09T04:21:36;15.03;;;4.07;;
2866;SDS011;1441;48.886;8.728;2023-10-09T04:24:06;14.37;;;4.90;;
2866;SDS011;1441;48.886;8.728;2023-10-09T04:26:48;14.50;;;5.00;;
2866;SDS011;1441;48.886;8.728;2023-10-09T04:29:18;17.63;;;4.27;;
2866;SDS011;1441;48.886;8.728;2023-10-09T04:31:56;20.33;;;6.10;;
2866;SDS011;1441;48.886;8.728;2023-10-09T04:34:24;20.60;;;4.77;;
2866;SDS011;1441;48.886;8.728;2023-10-09T04:36:52;14.87;;;3.73;;
2866;SDS011;1441;48.886;8.728;2023-10-09T04:39:26;17.70;;;4.87;;
2866;SDS011;1441;48.886;8.728;2023-10-09T04:41:58;14.63;;;5.53;;
2866;SDS011;1441;48.886;8.728;2023-10-09T04:44:42;19.77;;;5.50;;
2866;SDS011;1441;48.886;8.728;2023-10-09T04:47:27;18.83;;;4.67;;
2866;SDS011;1441;48.886;8.728;2023-10-09T04:50:06;31.20;;;6.00;;
2866;SDS011;1441;48.886;8.728;2023-10-09T04:52:58;17.17;;;4.47;;
2866;SDS011;1441;48.886;8.728;2023-10-09T04:55:44;16.37;;;4.17;;
2866;SDS011;1441;48.886;8.728;2023-10-09T04:58:18;23.50;;;4.27;;
2866;SDS011;1441;48.886;8.728;2023-10-09T05:00:53;17.47;;;5.13;;
2866;SDS011;1441;48.886;8.728;2023-10-09T05:03:22;28.83;;;5.67;;
2866;SDS011;1441;48.886;8.728;2023-10-09T05:06:04;18.43;;;5.10;;
2866;SDS011;1441;48.886;8.728;2023-10-09T05:08:46;11.90;;;5.30;;
2866;SDS011;1441;48.886;8.728;2023-10-09T05:11:13;17.27;;;5.80;;
2866;SDS011;1441;48.886;8.728;2023-10-09T05:13:58;18.53;;;4.83;;
2866;SDS011;1441;48.886;8.728;2023-10-09T05:16:36;15.30;;;5.53;;
2866;SDS011;1441;48.886;8.728;2023-10-09T05:19:03;19.23;;;4.90;;
2866;SDS011;1441;48.886;8.728;2023-10-09T05:24:07;18.43;;;5.23;;
2866;SDS011;1441;48.886;8.728;2023-10-09T05:29:11;17.70;;;4.63;;
2866;SDS011;1441;48.886;8.728;2023-10-09T05:31:56;16.43;;;4.67;;
2866;SDS011;1441;48.886;8.728;2023-10-09T05:34:33;19.93;;;4.80;;
2866;SDS011;1441;48.886;8.728;2023-10-09T05:37:04;12.40;;;3.23;;
2866;SDS011;1441;48.886;8.728;2023-10-09T05:39:47;20.50;;;4.70;;
2866;SDS011;1441;48.886;8.728;2023-10-09T05:42:26;13.20;;;3.93;;
2866;SDS011;1441;48.886;8.728;2023-10-09T05:45:11;21.60;;;4.30;;
2866;SDS011;1441;48.886;8.728;2023-10-09T05:47:42;13.87;;;3.80;;
2866;SDS011;1441;48.886;8.728;2023-10-09T05:50:32;16.20;;;4.53;;
2866;SDS011;1441;48.886;8.728;2023-10-09T05:53:03;20.30;;;4.70;;
2866;SDS011;1441;48.886;8.728;2023-10-09T05:55:29;22.07;;;4.03;;
2866;SDS011;1441;48.886;8.728;2023-10-09T05:58:14;12.60;;;3.57;;
2866;SDS011;1441;48.886;8.728;2023-10-09T06:01:18;15.23;;;3.97;;
2866;SDS011;1441;48.886;8.728;2023-10-09T06:04:02;13.90;;;4.53;;
2866;SDS011;1441;48.886;8.728;2023-10-09T06:06:40;16.70;;;5.17;;
2866;SDS011;1441;48.886;8.728;2023-10-09T06:09:20;19.00;;;4.93;;
2866;SDS011;1441;48.886;8.728;2023-10-09T06:11:47;17.30;;;4.30;;
2866;SDS011;1441;48.886;8.728;2023-10-09T06:14:18;8.73;;;3.53;;
2866;SDS011;1441;48.886;8.728;2023-10-09T06:16:51;14.27;;;4.30;;
2866;SDS011;1441;48.886;8.728;2023-10-09T06:19:27;13.23;;;3.93;;
2866;SDS011;1441;48.886;8.728;2023-10-09T06:21:57;14.37;;;4.43;;
2866;SDS011;1441;48.886;8.728;2023-10-09T06:24:43;15.03;;;3.80;;
2866;SDS011;1441;48.886;8.728;2023-10-09T06:27:19;19.00;;;3.70;;
2866;SDS011;1441;48.886;8.728;2023-10-09T06:29:57;13.67;;;4.10;;
2866;SDS011;1441;48.886;8.728;2023-10-09T06:32:42;15.33;;;4.10;;
2866;SDS011;1441;48.886;8.728;2023-10-09T06:35:20;12.40;;;3.40;;
2866;SDS011;1441;48.886;8.728;2023-10-09T06:37:55;20.00;;;4.40;;
2866;SDS011;1441;48.886;8.728;2023-10-09T06:40:30;12.83;;;3.07;;
2866;SDS011;1441;48.886;8.728;2023-10-09T06:43:16;13.10;;;4.50;;
2866;SDS011;1441;48.886;8.728;2023-10-09T06:45:42;17.27;;;3.83;;
2866;SDS011;1441;48.886;8.728;2023-10-09T06:48:09;12.30;;;3.60;;
2866;SDS011;1441;48.886;8.728;2023-10-09T06:50:55;15.93;;;3.37;;
2866;SDS011;1441;48.886;8.728;2023-10-09T06:53:21;26.80;;;4.80;;
2866;SDS011;1441;48.886;8.728;2023-10-09T06:55:50;18.13;;;4.27;;
2866;SDS011;1441;48.886;8.728;2023-10-09T06:58:30;13.63;;;3.90;;
2866;SDS011;1441;48.886;8.728;2023-10-09T07:01:06;11.30;;;2.60;;
2866;SDS011;1441;48.886;8.728;2023-10-09T07:03:50;15.80;;;3.27;;
2866;SDS011;1441;48.886;8.728;2023-10-09T07:06:19;13.80;;;3.43;;
2866;SDS011;1441;48.886;8.728;2023-10-09T07:08:55;16.23;;;3.60;;
2866;SDS011;1441;48.886;8.728;2023-10-09T07:14:07;17.17;;;3.00;;
2866;SDS011;1441;48.886;8.728;2023-10-09T07:16:58;17.17;;;3.30;;
2866;SDS011;1441;48.886;8.728;2023-10-09T07:19:28;15.90;;;4.10;;
2866;SDS011;1441;48.886;8.728;2023-10-09T07:22:23;19.83;;;4.30;;
2866;SDS011;1441;48.886;8.728;2023-10-09T07:24:54;13.10;;;3.83;;
2866;SDS011;1441;48.886;8.728;2023-10-09T07:27:24;13.30;;;4.30;;
2866;SDS011;1441;48.886;8.728;2023-10-09T07:30:10;14.07;;;3.77;;
2866;SDS011;1441;48.886;8.728;2023-10-09T07:32:55;19.63;;;3.63;;
2866;SDS011;1441;48.886;8.728;2023-10-09T07:35:33;21.60;;;4.10;;
2866;SDS011;1441;48.886;8.728;2023-10-09T07:38:11;17.60;;;4.40;;
2866;SDS011;1441;48.886;8.728;2023-10-09T07:40:39;24.60;;;4.63;;
2866;SDS011;1441;48.886;8.728;2023-10-09T07:43:24;16.97;;;3.20;;
2866;SDS011;1441;48.886;8.728;2023-10-09T07:46:01;16.23;;;3.10;;
2866;SDS011;1441;48.886;8.728;2023-10-09T07:48:30;13.80;;;2.83;;
2866;SDS011;1441;48.886;8.728;2023-10-09T07:51:17;17.93;;;3.30;;
2866;SDS011;1441;48.886;8.728;2023-10-09T07:53:47;15.60;;;3.53;;
2866;SDS011;1441;48.886;8.728;2023-10-09T07:56:22;25.30;;;4.50;;
2866;SDS011;1441;48.886;8.728;2023-10-09T07:58:48;17.97;;;3.87;;
2866;SDS011;1441;48.886;8.728;2023-10-09T08:01:14;10.80;;;3.90;;
2866;SDS011;1441;48.886;8.728;2023-10-09T08:03:46;24.37;;;3.70;;
2866;SDS011;1441;48.886;8.728;2023-10-09T08:06:12;21.93;;;4.80;;
2866;SDS011;1441;48.886;8.728;2023-10-09T08:09:16;17.63;;;4.47;;
2866;SDS011;1441;48.886;8.728;2023-10-09T08:11:43;26.80;;;4.50;;
2866;SDS011;1441;48.886;8.728;2023-10-09T08:14:10;20.80;;;4.20;;
2866;SDS011;1441;48.886;8.728;2023-10-09T08:16:55;15.57;;;3.80;;
2866;SDS011;1441;48.886;8.728;2023-10-09T08:19:41;10.57;;;3.40;;
2866;SDS011;1441;48.886;8.728;2023-10-09T08:22:20;27.90;;;4.23;;
2866;SDS011;1441;48.886;8.728;2023-10-09T08:24:50;13.80;;;3.73;;
2866;SDS011;1441;48.886;8.728;2023-10-09T08:30:00;17.57;;;3.83;;
2866;SDS011;1441;48.886;8.728;2023-10-09T08:32:47;11.50;;;3.03;;
2866;SDS011;1441;48.886;8.728;2023-10-09T08:35:29;29.33;;;3.83;;
2866;SDS011;1441;48.886;8.728;2023-10-09T08:37:58;16.87;;;3.03;;
2866;SDS011;1441;48.886;8.728;2023-10-09T08:40:34;9.23;;;3.07;;
2866;SDS011;1441;48.886;8.728;2023-10-09T08:43:14;15.30;;;3.33;;
2866;SDS011;1441;48.886;8.728;2023-10-09T08:45:44;16.43;;;3.10;;
2866;SDS011;1441;48.886;8.728;2023-10-09T08:48:11;21.50;;;3.37;;
2866;SDS011;1441;48.886;8.728;2023-10-09T08:50:44;20.73;;;3.33;;
2866;SDS011;1441;48.886;8.728;2023-10-09T08:53:11;12.30;;;3.87;;
2866;SDS011;1441;48.886;8.728;2023-10-09T08:55:37;24.83;;;4.07;;
2866;SDS011;1441;48.886;8.728;2023-10-09T08:58:06;11.10;;;3.40;;
2866;SDS011;1441;48.886;8.728;2023-10-09T09:00:43;28.77;;;4.70;;
2866;SDS011;1441;48.886;8.728;2023-10-09T09:03:10;20.43;;;3.87;;
2866;SDS011;1441;48.886;8.728;2023-10-09T09:05:37;16.13;;;3.13;;
2866;SDS011;1441;48.886;8.728;2023-10-09T09:08:03;15.30;;;3.70;;
2866;SDS011;1441;48.886;8.728;2023-10-09T09:10:29;14.93;;;2.93;;
2866;SDS011;1441;48.886;8.728;2023-10-09T09:13:04;20.40;;;3.67;;
2866;SDS011;1441;48.886;8.728;2023-10-09T09:15:30;16.50;;;3.30;;
2866;SDS011;1441;48.886;8.728;2023-10-09T09:18:03;14.50;;;2.83;;
2866;SDS011;1441;48.886;8.728;2023-10-09T09:20:36;8.90;;;3.63;;
2866;SDS011;1441;48.886;8.728;2023-10-09T09:23:05;12.10;;;3.07;;
2866;SDS011;1441;48.886;8.728;2023-10-09T09:28:13;17.10;;;3.50;;
2866;SDS011;1441;48.886;8.728;2023-10-09T09:30:44;22.83;;;3.50;;
2866;SDS011;1441;48.886;8.728;2023-10-09T09:33:19;9.47;;;3.50;;
2866;SDS011;1441;48.886;8.728;2023-10-09T09:35:58;12.63;;;3.07;;
2866;SDS011;1441;48.886;8.728;2023-10-09T09:38:29;24.97;;;4.23;;
2866;SDS011;1441;48.886;8.728;2023-10-09T09:41:06;13.60;;;2.97;;
2866;SDS011;1441;48.886;8.728;2023-10-09T09:43:34;14.00;;;3.37;;
2866;SDS011;1441;48.886;8.728;2023-10-09T09:46:03;19.57;;;3.50;;
2866;SDS011;1441;48.886;8.728;2023-10-09T09:48:33;17.17;;;3.93;;
2866;SDS011;1441;48.886;8.728;2023-10-09T09:51:04;10.23;;;3.33;;
2866;SDS011;1441;48.886;8.728;2023-10-09T09:53:33;16.23;;;3.40;;
2866;SDS011;1441;48.886;8.728;2023-10-09T09:56:00;9.67;;;2.80;;
2866;SDS011;1441;48.886;8.728;2023-10-09T09:58:28;12.27;;;2.97;;
2866;SDS011;1441;48.886;8.728;2023-10-09T10:01:07;23.03;;;3.40;;
2866;SDS011;1441;48.886;8.728;2023-10-09T10:03:42;15.97;;;3.43;;
2866;SDS011;1441;48.886;8.728;2023-10-09T10:06:12;13.10;;;3.90;;
2866;SDS011;1441;48.886;8.728;2023-10-09T10:08:40;20.23;;;3.87;;
2866;SDS011;1441;48.886;8.728;2023-10-09T10:11:06;16.27;;;2.57;;
2866;SDS011;1441;48.886;8.728;2023-10-09T10:16:13;15.60;;;3.00;;
2866;SDS011;1441;48.886;8.728;2023-10-09T10:18:52;21.47;;;3.70;;
2866;SDS011;1441;48.886;8.728;2023-10-09T10:21:53;9.73;;;3.90;;
2866;SDS011;1441;48.886;8.728;2023-10-09T10:27:38;13.67;;;3.07;;
2866;SDS011;1441;48.886;8.728;2023-10-09T10:35:20;15.60;;;4.40;;
2866;SDS011;1441;48.886;8.728;2023-10-09T10:37:58;12.93;;;3.27;;
2866;SDS011;1441;48.886;8.728;2023-10-09T10:40:33;12.30;;;3.30;;
2866;SDS011;1441;48.886;8.728;2023-10-09T10:43:22;11.43;;;3.40;;
2866;SDS011;1441;48.886;8.728;2023-10-09T10:46:01;11.57;;;3.53;;
2866;SDS011;1441;48.886;8.728;2023-10-09T10:48:33;17.33;;;4.03;;
2866;SDS011;1441;48.886;8.728;2023-10-09T10:51:05;25.30;;;3.47;;
2866;SDS011;1441;48.886;8.728;2023-10-09T10:53:31;16.17;;;3.60;;
2866;SDS011;1441;48.886;8.728;2023-10-09T10:56:15;14.00;;;3.33;;
2866;SDS011;1441;48.886;8.728;2023-10-09T10:58:41;11.43;;;3.33;;
2866;SDS011;1441;48.886;8.728;2023-10-09T11:01:19;12.17;;;3.33;;
2866;SDS011;1441;48.886;8.728;2023-10-09T11:03:49;19.90;;;4.17;;
2866;SDS011;1441;48.886;8.728;2023-10-09T11:06:28;16.10;;;3.53;;
2866;SDS011;1441;48.886;8.728;2023-10-09T11:09:04;14.33;;;4.07;;
2866;SDS011;1441;48.886;8.728;2023-10-09T11:11:46;14.40;;;3.40;;
2866;SDS011;1441;48.886;8.728;2023-10-09T11:14:15;8.60;;;3.20;;
2866;SDS011;1441;48.886;8.728;2023-10-09T11:16:42;10.30;;;3.20;;
2866;SDS011;1441;48.886;8.728;2023-10-09T11:19:12;17.43;;;3.30;;
2866;SDS011;1441;48.886;8.728;2023-10-09T11:21:58;11.93;;;3.57;;
2866;SDS011;1441;48.886;8.728;2023-10-09T11:24:30;13.73;;;3.43;;
2866;SDS011;1441;48.886;8.728;2023-10-09T11:26:59;13.27;;;3.40;;
2866;SDS011;1441;48.886;8.728;2023-10-09T11:29:32;12.00;;;3.10;;
2866;SDS011;1441;48.886;8.728;2023-10-09T11:32:08;9.73;;;3.30;;
2866;SDS011;1441;48.886;8.728;2023-10-09T11:34:50;27.53;;;5.23;;
2866;SDS011;1441;48.886;8.728;2023-10-09T11:37:33;16.73;;;4.17;;
2866;SDS011;1441;48.886;8.728;2023-10-09T11:40:07;16.30;;;3.03;;
2866;SDS011;1441;48.886;8.728;2023-10-09T11:42:53;17.17;;;3.30;;
2866;SDS011;1441;48.886;8.728;2023-10-09T11:45:25;18.40;;;3.50;;
2866;SDS011;1441;48.886;8.728;2023-10-09T11:47:57;19.17;;;3.90;;
2866;SDS011;1441;48.886;8.728;2023-10-09T11:50:47;14.10;;;3.17;;
2866;SDS011;1441;48.886;8.728;2023-10-09T11:53:21;12.70;;;3.63;;
2866;SDS011;1441;48.886;8.728;2023-10-09T11:55:47;11.97;;;3.33;;
2866;SDS011;1441;48.886;8.728;2023-10-09T11:58:14;16.27;;;3.77;;
2866;SDS011;1441;48.886;8.728;2023-10-09T12:00:50;14.13;;;3.47;;
2866;SDS011;1441;48.886;8.728;2023-10-09T12:03:29;10.70;;;3.23;;
2866;SDS011;1441;48.886;8.728;2023-10-09T12:05:59;13.63;;;3.70;;
2866;SDS011;1441;48.886;8.728;2023-10-09T12:08:30;17.90;;;3.60;;
2866;SDS011;1441;48.886;8.728;2023-10-09T12:10:57;13.73;;;3.40;;
2866;SDS011;1441;48.886;8.728;2023-10-09T12:13:24;11.43;;;3.63;;
2866;SDS011;1441;48.886;8.728;2023-10-09T12:15:50;10.47;;;3.10;;
2866;SDS011;1441;48.886;8.728;2023-10-09T12:18:20;15.17;;;3.60;;
2866;SDS011;1441;48.886;8.728;2023-10-09T12:20:48;8.80;;;3.10;;
2866;SDS011;1441;48.886;8.728;2023-10-09T12:23:18;9.20;;;3.23;;
2866;SDS011;1441;48.886;8.728;2023-10-09T12:25:44;12.37;;;3.40;;
2866;SDS011;1441;48.886;8.728;2023-10-09T12:28:10;16.67;;;3.80;;
2866;SDS011;1441;48.886;8.728;2023-10-09T12:30:39;9.37;;;3.33;;
2866;SDS011;1441;48.886;8.728;2023-10-09T12:33:06;12.20;;;3.70;;
2866;SDS011;1441;48.886;8.728;2023-10-09T12:35:36;13.60;;;4.00;;
2866;SDS011;1441;48.886;8.728;2023-10-09T12:38:03;16.03;;;3.83;;
2866;SDS011;1441;48.886;8.728;2023-10-09T12:40:34;18.00;;;4.53;;
2866;SDS011;1441;48.886;8.728;2023-10-09T12:43:00;11.30;;;3.43;;
2866;SDS011;1441;48.886;8.728;2023-10-09T12:45:25;10.73;;;4.13;;
2866;SDS011;1441;48.886;8.728;2023-10-09T12:47:52;15.53;;;4.37;;
2866;SDS011;1441;48.886;8.728;2023-10-09T12:50:19;13.77;;;4.43;;
2866;SDS011;1441;48.886;8.728;2023-10-09T12:52:53;7.23;;;3.67;;
2866;SDS011;1441;48.886;8.728;2023-10-09T12:55:27;9.97;;;4.87;;
2866;SDS011;1441;48.886;8.728;2023-10-09T12:57:57;9.27;;;4.13;;
2866;SDS011;1441;48.886;8.728;2023-10-09T13:00:31;15.77;;;4.67;;
2866;SDS011;1441;48.886;8.728;2023-10-09T13:02:58;11.07;;;4.50;;
2866;SDS011;1441;48.886;8.728;2023-10-09T13:05:26;14.90;;;4.97;;
2866;SDS011;1441;48.886;8.728;2023-10-09T13:07:52;10.90;;;5.20;;
2866;SDS011;1441;48.886;8.728;2023-10-09T13:10:20;9.63;;;5.00;;
2866;SDS011;1441;48.886;8.728;2023-10-09T13:12:49;13.47;;;5.20;;
2866;SDS011;1441;48.886;8.728;2023-10-09T13:15:20;19.77;;;5.03;;
2866;SDS011;1441;48.886;8.728;2023-10-09T13:17:46;10.00;;;5.47;;
2866;SDS011;1441;48.886;8.728;2023-10-09T13:20:12;15.47;;;5.00;;
2866;SDS011;1441;48.886;8.728;2023-10-09T13:22:38;12.77;;;5.80;;
2866;SDS011;1441;48.886;8.728;2023-10-09T13:25:07;13.17;;;4.80;;
2866;SDS011;1441;48.886;8.728;2023-10-09T13:27:40;14.13;;;4.83;;
2866;SDS011;1441;48.886;8.728;2023-10-09T13:30:06;9.50;;;4.70;;
2866;SDS011;1441;48.886;8.728;2023-10-09T13:32:34;7.20;;;4.70;;
2866;SDS011;1441;48.886;8.728;2023-10-09T13:35:04;8.87;;;5.20;;
2866;SDS011;1441;48.886;8.728;2023-10-09T13:37:31;12.60;;;5.60;;
2866;SDS011;1441;48.886;8.728;2023-10-09T13:40:02;11.17;;;5.70;;
2866;SDS011;1441;48.886;8.728;2023-10-09T13:42:36;9.00;;;5.67;;
2866;SDS011;1441;48.886;8.728;2023-10-09T13:45:03;8.63;;;4.93;;
2866;SDS011;1441;48.886;8.728;2023-10-09T13:47:40;17.10;;;5.17;;
2866;SDS011;1441;48.886;8.728;2023-10-09T13:50:09;18.00;;;5.97;;
2866;SDS011;1441;48.886;8.728;2023-10-09T13:52:35;15.97;;;5.33;;
2866;SDS011;1441;48.886;8.728;2023-10-09T13:55:04;11.40;;;4.70;;
2866;SDS011;1441;48.886;8.728;2023-10-09T13:57:40;16.40;;;5.27;;
2866;SDS011;1441;48.886;8.728;2023-10-09T14:00:10;12.40;;;4.90;;
2866;SDS011;1441;48.886;8.728;2023-10-09T14:02:44;19.57;;;6.57;;
2866;SDS011;1441;48.886;8.728;2023-10-09T14:05:11;19.13;;;6.70;;
2866;SDS011;1441;48.886;8.728;2023-10-09T14:07:37;14.23;;;5.77;;
2866;SDS011;1441;48.886;8.728;2023-10-09T14:10:03;16.10;;;5.67;;
2866;SDS011;1441;48.886;8.728;2023-10-09T14:12:42;14.13;;;4.93;;
2866;SDS011;1441;48.886;8.728;2023-10-09T14:15:11;22.30;;;5.53;;
2866;SDS011;1441;48.886;8.728;2023-10-09T14:17:42;10.70;;;4.50;;
2866;SDS011;1441;48.886;8.728;2023-10-09T14:20:07;15.37;;;5.60;;
2866;SDS011;1441;48.886;8.728;2023-10-09T14:22:55;16.77;;;5.43;;
2866;SDS011;1441;48.886;8.728;2023-10-09T14:25:20;22.63;;;6.60;;
2866;SDS011;1441;48.886;8.728;2023-10-09T14:27:46;11.00;;;5.17;;
2866;SDS011;1441;48.886;8.728;2023-10-09T14:30:13;16.93;;;6.53;;
2866;SDS011;1441;48.886;8.728;2023-10-09T14:32:47;13.57;;;5.37;;
2866;SDS011;1441;48.886;8.728;2023-10-09T14:35:16;11.30;;;4.87;;
2866;SDS011;1441;48.886;8.728;2023-10-09T14:37:46;14.57;;;5.40;;
2866;SDS011;1441;48.886;8.728;2023-10-09T14:40:12;11.60;;;5.47;;
2866;SDS011;1441;48.886;8.728;2023-10-09T14:42:45;24.53;;;5.50;;
2866;SDS011;1441;48.886;8.728;2023-10-09T14:45:11;23.40;;;5.70;;
2866;SDS011;1441;48.886;8.728;2023-10-09T14:47:43;20.63;;;5.20;;
2866;SDS011;1441;48.886;8.728;2023-10-09T14:50:11;21.03;;;8.00;;
2866;SDS011;1441;48.886;8.728;2023-10-09T14:52:38;14.03;;;5.43;;
2866;SDS011;1441;48.886;8.728;2023-10-09T14:55:05;17.40;;;6.30;;
2866;SDS011;1441;48.886;8.728;2023-10-09T14:57:31;20.43;;;6.03;;
2866;SDS011;1441;48.886;8.728;2023-10-09T14:59:59;64.60;;;9.93;;
2866;SDS011;1441;48.886;8.728;2023-10-09T15:02:32;33.00;;;6.67;;
2866;SDS011;1441;48.886;8.728;2023-10-09T15:04:58;27.87;;;6.83;;
2866;SDS011;1441;48.886;8.728;2023-10-09T15:07:24;22.37;;;5.27;;
2866;SDS011;1441;48.886;8.728;2023-10-09T15:09:49;15.90;;;5.60;;
2866;SDS011;1441;48.886;8.728;2023-10-09T15:12:16;16.17;;;5.50;;
2866;SDS011;1441;48.886;8.728;2023-10-09T15:14:41;15.40;;;5.93;;
2866;SDS011;1441;48.886;8.728;2023-10-09T15:17:08;19.47;;;5.33;;
2866;SDS011;1441;48.886;8.728;2023-10-09T15:19:33;21.50;;;5.70;;
2866;SDS011;1441;48.886;8.728;2023-10-09T15:21:59;36.70;;;7.40;;
2866;SDS011;1441;48.886;8.728;2023-10-09T15:24:25;18.57;;;5.60;;
2866;SDS011;1441;48.886;8.728;2023-10-09T15:26:52;18.57;;;5.47;;
2866;SDS011;1441;48.886;8.728;2023-10-09T15:29:22;15.00;;;5.60;;
2866;SDS011;1441;48.886;8.728;2023-10-09T15:31:56;16.53;;;5.97;;
2866;SDS011;1441;48.886;8.728;2023-10-09T15:34:30;15.10;;;5.20;;
2866;SDS011;1441;48.886;8.728;2023-10-09T15:36:56;16.00;;;5.00;;
2866;SDS011;1441;48.886;8.728;2023-10-09T15:39:22;17.17;;;5.07;;
2866;SDS011;1441;48.886;8.728;2023-10-09T15:41:48;15.00;;;5.10;;
2866;SDS011;1441;48.886;8.728;2023-10-09T15:44:15;30.90;;;5.13;;
2866;SDS011;1441;48.886;8.728;2023-10-09T15:46:41;19.50;;;5.17;;
2866;SDS011;1441;48.886;8.728;2023-10-09T15:49:10;14.10;;;4.60;;
2866;SDS011;1441;48.886;8.728;2023-10-09T15:51:38;16.23;;;4.63;;
2866;SDS011;1441;48.886;8.728;2023-10-09T15:54:03;32.10;;;5.17;;
2866;SDS011;1441;48.886;8.728;2023-10-09T15:56:29;16.93;;;5.37;;
2866;SDS011;1441;48.886;8.728;2023-10-09T15:58:54;21.90;;;5.43;;
2866;SDS011;1441;48.886;8.728;2023-10-09T16:01:21;17.03;;;5.33;;
2866;SDS011;1441;48.886;8.728;2023-10-09T16:03:48;24.13;;;5.97;;